M I D A S
Marine Information and Data Acquisition System
Tripno 2176 of the Zeeleeuw from 2011-07-07 06:17:24 to 2011-07-07 14:18:31
Back to CruiseResearch ActivitiesStationsMapUnderway DataData graphs

EquipmentUnitsComment
TimeDGPSUTC
LatitudeDGPSDM.mWGS84
LongitudeDGPSDM.mWGS84
HeadingGyrodeg 
SOGDGPSknotsSpeed over ground
COGDGPSdegCourse over ground
DepthEcho soundermeters200 kHz
Missing or incorrect values are displayed as -999
Navigation data collected by the RV Zeeleeuw from 2011-07-07 06:18:47 to 2011-07-07 14:28:43
                                                                                    Next 1000 lines
Time Latitude Longitude Heading SOG COG Depth
2011-07-07 06:18:57 51°13.636 2°56.015 108.9 1 288 9.2
2011-07-07 06:19:01 51°13.636 2°56.012 108.6 1.5 290 9.4
2011-07-07 06:19:06 51°13.637 2°56.009 108.4 1.9 291 9.4
2011-07-07 06:19:11 51°13.638 2°56.004 108.6 2.3 292 9.7
2011-07-07 06:19:17 51°13.64 2°55.997 109 2.7 291 -999
2011-07-07 06:19:22 51°13.642 2°55.991 109.4 3 292 -999
2011-07-07 06:19:28 51°13.644 2°55.982 109.5 3.4 292 -999
2011-07-07 06:19:33 51°13.646 2°55.975 109.4 3.7 292 -999
2011-07-07 06:19:38 51°13.648 2°55.967 109.1 3.9 291 -999
2011-07-07 06:19:44 51°13.65 2°55.957 109.1 4.1 291 -999
2011-07-07 06:19:48 51°13.652 2°55.95 109.4 4.3 291 -999
2011-07-07 06:19:53 51°13.654 2°55.941 109.7 4.4 291 -999
2011-07-07 06:19:58 51°13.656 2°55.932 109.9 4.5 291 -999
2011-07-07 06:20:03 51°13.659 2°55.922 110.4 4.6 292 -999
2011-07-07 06:20:08 51°13.661 2°55.912 110.8 4.8 291 -999
2011-07-07 06:20:13 51°13.664 2°55.902 110.8 4.8 292 -999
2011-07-07 06:20:18 51°13.666 2°55.892 110.2 4.9 291 -999
2011-07-07 06:20:23 51°13.669 2°55.882 109.5 4.9 292 -999
2011-07-07 06:20:28 51°13.671 2°55.872 108.8 4.9 291 -999
2011-07-07 06:20:33 51°13.673 2°55.862 108 4.7 291 -999
2011-07-07 06:20:38 51°13.675 2°55.853 107.1 4.4 290 -999
2011-07-07 06:20:43 51°13.677 2°55.844 106.4 4.2 290 -999
2011-07-07 06:20:49 51°13.68 2°55.834 104.9 4.1 289 -999
2011-07-07 06:20:53 51°13.681 2°55.827 103.4 3.9 288 -999
2011-07-07 06:20:58 51°13.683 2°55.82 101.7 3.8 287 5
2011-07-07 06:21:03 51°13.684 2°55.812 100.5 3.7 286 13.3
2011-07-07 06:21:08 51°13.685 2°55.804 98.8 3.5 284 13.6
2011-07-07 06:21:13 51°13.686 2°55.797 96.9 3.4 283 13.5
2011-07-07 06:21:18 51°13.687 2°55.79 94.5 3.2 281 13.6
2011-07-07 06:21:22 51°13.687 2°55.785 92 3.1 278 13.9
2011-07-07 06:21:27 51°13.688 2°55.778 89.4 3 276 13.7
2011-07-07 06:21:32 51°13.688 2°55.772 87 2.9 274 13.9
2011-07-07 06:21:37 51°13.688 2°55.766 84.7 2.7 273 13.7
2011-07-07 06:21:42 51°13.688 2°55.761 82.6 2.6 271 13.4
2011-07-07 06:21:46 51°13.688 2°55.756 80.7 2.3 268 13.2
2011-07-07 06:21:51 51°13.688 2°55.752 78.4 2.2 269 13.1
2011-07-07 06:21:56 51°13.688 2°55.747 76 2 265 13
2011-07-07 06:22:01 51°13.688 2°55.742 74 1.8 268 13.3
2011-07-07 06:22:06 51°13.688 2°55.739 71.8 1.6 263 13.6
2011-07-07 06:22:10 51°13.688 2°55.736 69.4 1.4 267 13.5
2011-07-07 06:22:15 51°13.687 2°55.734 66.6 1.2 262 13.4
2011-07-07 06:22:21 51°13.687 2°55.731 63.8 1.1 268 13.5
2011-07-07 06:22:26 51°13.687 2°55.729 61.1 0.8 266 13.4
2011-07-07 06:22:30 51°13.687 2°55.727 58.4 0.7 275 13.5
2011-07-07 06:22:35 51°13.688 2°55.726 55.5 0.6 279 13.5
2011-07-07 06:22:40 51°13.688 2°55.726 52.7 0.4 298 13.5
2011-07-07 06:22:45 51°13.688 2°55.725 49.6 0.3 319 13.6
2011-07-07 06:22:50 51°13.689 2°55.725 46.5 0.4 341 13.8
2011-07-07 06:22:54 51°13.689 2°55.724 42.9 0.5 359 13.8
2011-07-07 06:22:58 51°13.69 2°55.725 39.2 0.7 6 13.9
2011-07-07 06:23:04 51°13.691 2°55.725 34.9 1 10 14
2011-07-07 06:23:10 51°13.694 2°55.726 30.5 1.5 18 14.4
2011-07-07 06:23:14 51°13.696 2°55.727 24.5 1.8 8 14.4
2011-07-07 06:23:18 51°13.698 2°55.727 17.5 1.9 8 14.3
2011-07-07 06:23:24 51°13.701 2°55.727 11.3 1.9 1 14.4
2011-07-07 06:23:29 51°13.704 2°55.727 5.9 1.9 359 14.9
2011-07-07 06:23:34 51°13.706 2°55.727 1.6 1.9 356 14.6
2011-07-07 06:23:39 51°13.709 2°55.727 357.9 1.9 354 14.1
2011-07-07 06:23:44 51°13.711 2°55.726 354.4 1.9 351 13.4
2011-07-07 06:23:50 51°13.714 2°55.725 350.8 2 348 13.4
2011-07-07 06:23:54 51°13.717 2°55.724 347.6 2 345 13.5
2011-07-07 06:24:00 51°13.72 2°55.723 344.2 2.1 342 13.7
2011-07-07 06:24:05 51°13.723 2°55.721 341 2.2 339 13.6
2011-07-07 06:24:09 51°13.725 2°55.719 338.3 2.2 336 13.5
2011-07-07 06:24:14 51°13.728 2°55.717 336.2 2.3 336 13.5
2011-07-07 06:24:19 51°13.731 2°55.715 334.7 2.3 335 13.1
2011-07-07 06:24:24 51°13.734 2°55.713 333.5 2.4 334 13
2011-07-07 06:24:29 51°13.737 2°55.711 332.8 2.5 333 12.9
2011-07-07 06:24:34 51°13.74 2°55.708 332.5 2.5 332 12.9
2011-07-07 06:24:38 51°13.743 2°55.705 332.5 2.6 334 12.9
2011-07-07 06:24:44 51°13.746 2°55.701 332.3 2.6 333 13.2
2011-07-07 06:24:49 51°13.749 2°55.698 332.3 2.7 333 12.8
2011-07-07 06:24:55 51°13.753 2°55.695 332.3 2.7 332 12.8
2011-07-07 06:25:00 51°13.755 2°55.688 332.3 2 332 12.9
2011-07-07 06:25:04 51°13.757 2°55.683 332.3 1.5 332 12.8
2011-07-07 06:25:09 51°13.759 2°55.677 332.3 1.8 332 12.7
2011-07-07 06:25:14 51°13.762 2°55.674 332.3 3.1 331 12.7
2011-07-07 06:25:19 51°13.767 2°55.673 332.3 3.1 333 12.8
2011-07-07 06:25:25 51°13.772 2°55.67 332.4 3.2 331 12.9
2011-07-07 06:25:29 51°13.776 2°55.669 332.4 3.2 332 12.8
2011-07-07 06:25:34 51°13.781 2°55.666 332.4 3.3 332 12.9
2011-07-07 06:25:38 51°13.785 2°55.664 332.4 3.4 332 12.9
2011-07-07 06:25:44 51°13.791 2°55.662 332.7 3.4 332 12.9
2011-07-07 06:25:49 51°13.795 2°55.659 333.1 3.5 334 12.9
2011-07-07 06:25:54 51°13.8 2°55.656 333.6 3.5 334 12.9
2011-07-07 06:26:00 51°13.805 2°55.651 334.3 3.6 335 12.9
2011-07-07 06:26:05 51°13.809 2°55.648 335.4 3.6 336 12.9
2011-07-07 06:26:10 51°13.814 2°55.645 336.6 3.7 337 12.9
2011-07-07 06:26:15 51°13.818 2°55.642 338.4 3.6 338 12.9
2011-07-07 06:26:19 51°13.822 2°55.641 340.5 3.5 341 12.9
2011-07-07 06:26:25 51°13.828 2°55.638 342.6 3.4 342 12.8
2011-07-07 06:26:30 51°13.833 2°55.637 344.5 3.3 344 12.8
2011-07-07 06:26:35 51°13.837 2°55.635 346.3 3.3 345 12.8
2011-07-07 06:26:39 51°13.841 2°55.634 348 3.2 347 12.8
2011-07-07 06:26:44 51°13.845 2°55.633 349.8 3.1 348 12.8
2011-07-07 06:26:49 51°13.849 2°55.632 351.4 3 350 12.8
2011-07-07 06:26:54 51°13.853 2°55.631 353.3 2.9 352 12.8
2011-07-07 06:26:59 51°13.857 2°55.63 355.2 2.9 354 12.8
2011-07-07 06:27:04 51°13.861 2°55.629 357.2 2.8 355 12.8
2011-07-07 06:27:09 51°13.864 2°55.628 359 2.7 357 12.8
2011-07-07 06:27:15 51°13.868 2°55.628 0.7 2.6 358 13
2011-07-07 06:27:19 51°13.871 2°55.627 2.3 2.6 1 12.8
2011-07-07 06:27:24 51°13.875 2°55.627 3.9 2.5 2 12.7
2011-07-07 06:27:30 51°13.879 2°55.628 5.5 2.4 3 12.6
2011-07-07 06:27:35 51°13.882 2°55.63 7.2 2.4 4 13
2011-07-07 06:27:39 51°13.885 2°55.631 8.6 2.3 5 13
2011-07-07 06:27:44 51°13.889 2°55.632 9.8 2.3 7 12.8
2011-07-07 06:27:49 51°13.891 2°55.632 10.9 2.2 8 12.9
2011-07-07 06:27:55 51°13.895 2°55.632 11.6 2.2 8 12.7
2011-07-07 06:27:59 51°13.897 2°55.633 12 2.1 10 13.1
2011-07-07 06:28:04 51°13.9 2°55.633 12.1 2.1 9 12.8
2011-07-07 06:28:10 51°13.903 2°55.634 11.7 2.1 9 12.7
2011-07-07 06:28:15 51°13.906 2°55.634 11.4 2 9 12.8
2011-07-07 06:28:19 51°13.908 2°55.635 11.1 2 9 12.9
2011-07-07 06:28:24 51°13.911 2°55.636 10.9 1.9 9 13.2
2011-07-07 06:28:29 51°13.914 2°55.637 10.7 1.9 10 13.1
2011-07-07 06:28:34 51°13.917 2°55.638 10.5 1.9 9 13
2011-07-07 06:28:39 51°13.919 2°55.64 10.3 1.8 10 13.1
2011-07-07 06:28:44 51°13.922 2°55.64 10.2 1.8 9 13.2
2011-07-07 06:28:49 51°13.924 2°55.641 10.2 1.8 9 13.2
2011-07-07 06:28:55 51°13.927 2°55.642 10.1 1.8 9 13.1
2011-07-07 06:28:59 51°13.929 2°55.642 9.6 1.7 9 13.1
2011-07-07 06:29:04 51°13.932 2°55.643 9.1 1.7 9 13.1
2011-07-07 06:29:09 51°13.934 2°55.643 8.7 1.7 9 13.1
2011-07-07 06:29:15 51°13.937 2°55.644 8.2 1.6 9 13.2
2011-07-07 06:29:19 51°13.938 2°55.644 8 1.6 8 12.7
2011-07-07 06:29:24 51°13.94 2°55.644 7.9 1.6 7 12.8
2011-07-07 06:29:29 51°13.942 2°55.644 7.8 1.5 7 13
2011-07-07 06:29:35 51°13.945 2°55.645 7.8 1.5 7 13
2011-07-07 06:29:39 51°13.946 2°55.645 7.4 1.2 6 13.2
2011-07-07 06:29:44 51°13.948 2°55.646 6.6 1 5 13.3
2011-07-07 06:29:50 51°13.949 2°55.646 5.2 0.9 6 13.1
2011-07-07 06:29:55 51°13.95 2°55.646 4.4 0.8 7 13.1
2011-07-07 06:29:59 51°13.951 2°55.646 3.5 0.7 4 13.1
2011-07-07 06:30:04 51°13.952 2°55.647 3 0.5 7 13.2
2011-07-07 06:30:10 51°13.953 2°55.647 2.3 0.4 2 13
2011-07-07 06:30:15 51°13.953 2°55.647 1.8 0.3 8 13
2011-07-07 06:30:19 51°13.953 2°55.647 1.3 0.1 1 13.1
2011-07-07 06:30:25 51°13.953 2°55.647 0.8 -999 145 13
2011-07-07 06:30:30 51°13.953 2°55.647 0.3 0.1 183 13.1
2011-07-07 06:30:35 51°13.953 2°55.647 359.9 0.2 182 13.1
2011-07-07 06:30:39 51°13.952 2°55.646 359.6 0.3 191 13.2
2011-07-07 06:30:44 51°13.952 2°55.646 359.3 0.4 182 13.1
2011-07-07 06:30:49 51°13.951 2°55.646 359.1 0.6 186 13.3
2011-07-07 06:30:55 51°13.95 2°55.646 358.7 0.6 182 13.1
2011-07-07 06:30:59 51°13.949 2°55.646 358.5 0.7 186 5.1
2011-07-07 06:31:05 51°13.948 2°55.646 358.1 0.8 180 4.8
2011-07-07 06:31:10 51°13.947 2°55.646 357.9 0.9 184 4.9
2011-07-07 06:31:15 51°13.946 2°55.646 357.5 0.8 181 -999
2011-07-07 06:31:20 51°13.944 2°55.646 357.2 0.8 183 -999
2011-07-07 06:31:26 51°13.943 2°55.646 357 0.7 179 -999
2011-07-07 06:31:31 51°13.942 2°55.646 356.8 0.7 183 -999
2011-07-07 06:31:37 51°13.941 2°55.646 356.5 0.7 178 5
2011-07-07 06:31:43 51°13.94 2°55.646 356.3 0.6 181 -999
2011-07-07 06:31:47 51°13.94 2°55.646 356.1 0.6 175 12.7
2011-07-07 06:31:52 51°13.939 2°55.646 355.9 0.6 178 13.1
2011-07-07 06:31:57 51°13.938 2°55.646 355.7 0.5 173 12.8
2011-07-07 06:32:02 51°13.937 2°55.646 355.5 0.6 177 12.9
2011-07-07 06:32:07 51°13.937 2°55.646 355.1 0.5 173 13.2
2011-07-07 06:32:12 51°13.936 2°55.646 355 0.5 177 13.3
2011-07-07 06:32:17 51°13.935 2°55.647 354.7 0.5 171 13.5
2011-07-07 06:32:22 51°13.935 2°55.647 354.5 0.5 176 13.1
2011-07-07 06:32:27 51°13.934 2°55.647 354.5 0.4 173 13.1
2011-07-07 06:32:31 51°13.934 2°55.647 354.4 0.4 175 13.3
2011-07-07 06:32:36 51°13.933 2°55.647 354.4 0.4 171 13
2011-07-07 06:32:41 51°13.933 2°55.648 354.4 0.3 172 13.1
2011-07-07 06:32:46 51°13.933 2°55.647 354.5 0.2 170 -999
2011-07-07 06:32:51 51°13.932 2°55.648 354.1 0.2 160 13
2011-07-07 06:32:55 51°13.932 2°55.647 353.4 0.2 169 13.1
2011-07-07 06:33:01 51°13.932 2°55.648 352.6 0.2 153 13.1
2011-07-07 06:33:06 51°13.932 2°55.648 352 0.2 160 13.1
2011-07-07 06:33:10 51°13.932 2°55.648 351.4 0.2 144 13.4
2011-07-07 06:33:15 51°13.931 2°55.648 350.9 0.1 155 13.1
2011-07-07 06:33:20 51°13.931 2°55.649 350.5 0.2 138 13.3
2011-07-07 06:33:25 51°13.931 2°55.649 350.2 0.1 156 13.1
2011-07-07 06:33:30 51°13.931 2°55.649 350 0.2 131 13
2011-07-07 06:33:35 51°13.931 2°55.649 349.9 0.2 140 13
2011-07-07 06:33:39 51°13.931 2°55.649 349.8 0.2 128 13
2011-07-07 06:33:44 51°13.93 2°55.65 349.8 0.1 133 13
2011-07-07 06:33:49 51°13.93 2°55.65 349.8 0.2 121 12.9
2011-07-07 06:33:55 51°13.93 2°55.649 349.9 0.1 134 13
2011-07-07 06:33:59 51°13.93 2°55.649 350 0.1 106 13
2011-07-07 06:34:04 51°13.93 2°55.649 350.2 0.1 33 13
2011-07-07 06:34:09 51°13.93 2°55.649 349.8 0.2 10 13
2011-07-07 06:34:15 51°13.931 2°55.649 348.9 0.3 3 13
2011-07-07 06:34:19 51°13.931 2°55.649 347.5 0.4 355 13
2011-07-07 06:34:24 51°13.932 2°55.649 345.8 0.5 356 13.1
2011-07-07 06:34:30 51°13.933 2°55.649 343.4 0.5 349 13.1
2011-07-07 06:34:35 51°13.934 2°55.649 341.7 0.6 346 13.1
2011-07-07 06:34:39 51°13.935 2°55.648 339.4 0.8 341 13
2011-07-07 06:34:44 51°13.937 2°55.647 336.9 1.7 336 13.1
2011-07-07 06:34:49 51°13.939 2°55.644 334.2 2.3 332 12.6
2011-07-07 06:34:55 51°13.943 2°55.641 331.5 2.8 331 13
2011-07-07 06:34:59 51°13.946 2°55.638 329.8 3.2 329 12.9
2011-07-07 06:35:04 51°13.95 2°55.634 328.7 3.6 329 12.9
2011-07-07 06:35:09 51°13.955 2°55.629 328.1 4.4 328 13
2011-07-07 06:35:15 51°13.963 2°55.621 327.7 5.2 327 12.9
2011-07-07 06:35:19 51°13.968 2°55.616 327.7 5.9 327 12.9
2011-07-07 06:35:24 51°13.976 2°55.608 327.8 6.5 327 12.6
2011-07-07 06:35:30 51°13.985 2°55.597 327.8 7.1 326 12.6
2011-07-07 06:35:35 51°13.994 2°55.588 327.4 7.6 326 12.4
2011-07-07 06:35:39 51°14.002 2°55.58 327 7.9 325 12.7
2011-07-07 06:35:44 51°14.011 2°55.57 326.4 8.4 324 12.4
2011-07-07 06:35:49 51°14.021 2°55.559 325.9 8.7 324 12.7
2011-07-07 06:35:55 51°14.033 2°55.545 325.6 9 324 -999
2011-07-07 06:35:59 51°14.042 2°55.536 325.8 9.1 324 12.8
2011-07-07 06:36:04 51°14.052 2°55.524 326.5 9.3 325 12.7
2011-07-07 06:36:09 51°14.063 2°55.512 326.7 9.4 325 12.6
2011-07-07 06:36:15 51°14.076 2°55.497 326.6 9.5 325 12.6
2011-07-07 06:36:19 51°14.084 2°55.488 327.1 9.5 326 12.6
2011-07-07 06:36:24 51°14.095 2°55.476 327.6 9.6 326 12.6
2011-07-07 06:36:30 51°14.109 2°55.462 327.7 9.7 326 12.6
2011-07-07 06:36:35 51°14.12 2°55.45 328.1 9.7 327 12.6
2011-07-07 06:36:39 51°14.129 2°55.441 328.5 9.7 327 12.5
2011-07-07 06:36:45 51°14.142 2°55.427 327.7 9.8 326 4.8
2011-07-07 06:36:50 51°14.154 2°55.415 327.9 9.7 328 5
2011-07-07 06:36:55 51°14.165 2°55.403 329 9.7 327 4.8
2011-07-07 06:37:00 51°14.177 2°55.392 328.7 9.7 327 4.8
2011-07-07 06:37:05 51°14.188 2°55.38 328.2 9.7 327 4.8
2011-07-07 06:37:10 51°14.199 2°55.369 328.6 9.6 329 12.5
2011-07-07 06:37:15 51°14.211 2°55.358 330.3 9.6 328 12.6
2011-07-07 06:37:20 51°14.222 2°55.347 330.4 9.6 328 -999
2011-07-07 06:37:25 51°14.233 2°55.335 329.8 9.5 327 12.5
2011-07-07 06:37:30 51°14.244 2°55.324 329.7 9.5 329 -999
2011-07-07 06:37:35 51°14.256 2°55.313 330.1 9.6 328 12.5
2011-07-07 06:37:40 51°14.267 2°55.302 330.3 9.5 329 12.5
2011-07-07 06:37:45 51°14.278 2°55.291 330.9 9.6 329 12.4
2011-07-07 06:37:50 51°14.29 2°55.28 330.9 9.7 328 4.7
2011-07-07 06:37:55 51°14.301 2°55.268 329.3 9.8 327 -999
2011-07-07 06:38:00 51°14.313 2°55.257 329.1 9.9 328 12.4
2011-07-07 06:38:05 51°14.325 2°55.245 329.5 10 329 -999
2011-07-07 06:38:10 51°14.337 2°55.233 329.8 10.1 328 12.3
2011-07-07 06:38:15 51°14.348 2°55.221 329.6 10.1 328 12.4
2011-07-07 06:38:19 51°14.358 2°55.212 329.5 10.2 328 12.3
2011-07-07 06:38:25 51°14.373 2°55.198 330.1 10.2 329 -999
2011-07-07 06:38:30 51°14.385 2°55.186 330.3 10.2 328 11.9
2011-07-07 06:38:35 51°14.397 2°55.174 329.7 10.3 328 12.5
2011-07-07 06:38:39 51°14.406 2°55.164 329.6 10.3 328 12.4
2011-07-07 06:38:44 51°14.419 2°55.152 329.9 10.4 328 12.3
2011-07-07 06:38:50 51°14.434 2°55.137 329.9 10.5 328 12.1
2011-07-07 06:38:54 51°14.444 2°55.128 330.2 10.5 328 12.3
2011-07-07 06:38:59 51°14.456 2°55.115 329.9 10.6 327 12.2
2011-07-07 06:39:04 51°14.469 2°55.102 328.9 10.7 326 12.4
2011-07-07 06:39:09 51°14.481 2°55.089 328.6 10.8 327 12.4
2011-07-07 06:39:15 51°14.496 2°55.073 328.9 10.9 328 12.4
2011-07-07 06:39:19 51°14.506 2°55.063 328.9 10.9 327 12.6
2011-07-07 06:39:24 51°14.519 2°55.05 328.9 11 328 12.8
2011-07-07 06:39:30 51°14.535 2°55.035 329.8 11 328 13
2011-07-07 06:39:35 51°14.548 2°55.022 330.4 11.1 329 13.6
2011-07-07 06:39:39 51°14.558 2°55.011 329.7 11.1 327 13.5
2011-07-07 06:39:44 51°14.572 2°54.999 329.3 11.2 329 13.3
2011-07-07 06:39:49 51°14.585 2°54.986 329.8 11.2 328 13.6
2011-07-07 06:39:55 51°14.601 2°54.97 329.2 11.2 328 13.5
2011-07-07 06:39:59 51°14.611 2°54.959 329.1 11.2 328 13.5
2011-07-07 06:40:04 51°14.624 2°54.946 329.1 11.2 328 13.6
2011-07-07 06:40:10 51°14.64 2°54.93 328.7 11.2 328 13.3
2011-07-07 06:40:15 51°14.653 2°54.917 328.5 11.2 328 13.2
2011-07-07 06:40:19 51°14.664 2°54.906 328.6 11.2 328 13.2
2011-07-07 06:40:24 51°14.677 2°54.893 327.4 11.3 327 13.5
2011-07-07 06:40:29 51°14.69 2°54.879 326.8 11.4 327 13.4
2011-07-07 06:40:35 51°14.706 2°54.862 326.1 11.4 326 13.2
2011-07-07 06:40:39 51°14.717 2°54.851 325.4 11.4 326 13.2
2011-07-07 06:40:44 51°14.73 2°54.837 325 11.5 326 13.3
2011-07-07 06:40:49 51°14.743 2°54.823 325 11.7 328 13
2011-07-07 06:40:55 51°14.76 2°54.807 325.7 11.8 328 13.2
2011-07-07 06:40:59 51°14.771 2°54.795 325.9 11.9 327 13.2
2011-07-07 06:41:04 51°14.785 2°54.78 324.8 12 326 12.9
2011-07-07 06:41:10 51°14.802 2°54.762 323.8 12.1 327 12.8
2011-07-07 06:41:15 51°14.816 2°54.747 323.8 12.1 326 12.9
2011-07-07 06:41:19 51°14.827 2°54.735 322.9 12.2 324 13.1
2011-07-07 06:41:24 51°14.841 2°54.72 322.3 12.2 325 13.6
2011-07-07 06:41:29 51°14.854 2°54.704 322.3 12.2 323 13
2011-07-07 06:41:35 51°14.871 2°54.685 321.8 12.3 324 13.4
2011-07-07 06:41:39 51°14.882 2°54.672 322.1 12.4 325 13.5
2011-07-07 06:41:44 51°14.897 2°54.657 323.5 12.5 327 13.1
2011-07-07 06:41:49 51°14.911 2°54.642 324.8 12.6 328 13.1
2011-07-07 06:41:55 51°14.93 2°54.625 326 12.7 330 12.8
2011-07-07 06:41:59 51°14.942 2°54.614 327.3 12.8 332 12.2
2011-07-07 06:42:04 51°14.958 2°54.602 329.4 12.9 334 11.8
2011-07-07 06:42:09 51°14.974 2°54.589 331.1 13 335 11.6
2011-07-07 06:42:15 51°14.994 2°54.575 332.3 13 336 11.4
2011-07-07 06:42:19 51°15.007 2°54.566 333.7 13.1 338 11.4
2011-07-07 06:42:24 51°15.024 2°54.556 335.1 13.2 339 11.4
2011-07-07 06:42:29 51°15.042 2°54.546 336.8 13.2 341 11.1
2011-07-07 06:42:35 51°15.063 2°54.536 339.2 13.2 344 10.9
2011-07-07 06:42:39 51°15.077 2°54.53 341.9 13.2 345 10.7
2011-07-07 06:42:44 51°15.095 2°54.524 344.6 13.3 349 10.4
2011-07-07 06:42:49 51°15.113 2°54.519 347.7 13.2 351 10.2
2011-07-07 06:42:55 51°15.135 2°54.515 349.9 13.3 352 10.3
2011-07-07 06:42:59 51°15.15 2°54.512 351.6 13.3 354 10.3
2011-07-07 06:43:04 51°15.168 2°54.51 353.5 13.3 355 10.3
2011-07-07 06:43:09 51°15.186 2°54.507 354.5 13.4 356 10.4
2011-07-07 06:43:15 51°15.209 2°54.505 355.5 13.4 357 10.4
2011-07-07 06:43:19 51°15.224 2°54.504 356.2 13.4 357 10.5
2011-07-07 06:43:24 51°15.242 2°54.503 356.8 13.4 358 10.5
2011-07-07 06:43:30 51°15.264 2°54.501 357.2 13.4 357 10.6
2011-07-07 06:43:35 51°15.283 2°54.5 357.4 13.4 358 10.6
2011-07-07 06:43:39 51°15.298 2°54.499 357.7 13.4 357 10.7
2011-07-07 06:43:44 51°15.317 2°54.497 357.2 13.3 356 10.8
2011-07-07 06:43:49 51°15.335 2°54.494 356 13.3 356 10.7
2011-07-07 06:43:55 51°15.357 2°54.492 355.9 13.4 356 10.9
2011-07-07 06:43:59 51°15.372 2°54.489 355.1 13.4 355 10.9
2011-07-07 06:44:04 51°15.391 2°54.488 355.2 13.4 356 11
2011-07-07 06:44:10 51°15.413 2°54.484 354.9 13.3 354 10.9
2011-07-07 06:44:15 51°15.431 2°54.482 354.6 13.3 355 11
2011-07-07 06:44:19 51°15.445 2°54.48 354.6 13.3 355 11.1
2011-07-07 06:44:24 51°15.464 2°54.477 354.4 13.3 355 11.1
2011-07-07 06:44:29 51°15.482 2°54.474 354.5 13.3 355 11.3
2011-07-07 06:44:35 51°15.504 2°54.471 354.6 13.3 355 11.3
2011-07-07 06:44:39 51°15.519 2°54.469 354.6 13.3 355 11.3
2011-07-07 06:44:44 51°15.537 2°54.467 355.1 13.3 356 11.3
2011-07-07 06:44:49 51°15.556 2°54.465 355.1 13.3 356 11.4
2011-07-07 06:44:55 51°15.578 2°54.464 356.2 13.4 359 11.5
2011-07-07 06:44:59 51°15.593 2°54.465 358.5 13.4 1 11.5
2011-07-07 06:45:04 51°15.611 2°54.466 1.1 13.4 4 11.4
2011-07-07 06:45:10 51°15.633 2°54.471 4.3 13.3 7 11.6
2011-07-07 06:45:15 51°15.652 2°54.476 7.3 13.3 10 11.6
2011-07-07 06:45:19 51°15.666 2°54.481 10.2 13.3 12 11.7
2011-07-07 06:45:24 51°15.684 2°54.488 12.5 13.4 14 11.6
2011-07-07 06:45:29 51°15.702 2°54.497 15.1 13.3 17 11.7
2011-07-07 06:45:35 51°15.723 2°54.509 17.9 13.3 20 11.7
2011-07-07 06:45:39 51°15.737 2°54.518 20.7 13.4 23 11.7
2011-07-07 06:45:44 51°15.753 2°54.53 23.4 13.4 25 11.8
2011-07-07 06:45:49 51°15.77 2°54.544 26 13.4 28 11.8
2011-07-07 06:45:55 51°15.789 2°54.561 28.4 13.3 29 11.8
2011-07-07 06:45:59 51°15.802 2°54.573 30.6 13.3 31 11.7
2011-07-07 06:46:04 51°15.818 2°54.589 32.3 13.4 32 11.8
2011-07-07 06:46:09 51°15.834 2°54.605 33.2 13.3 34 11.8
2011-07-07 06:46:15 51°15.852 2°54.625 34.9 13.3 34 11.8
2011-07-07 06:46:19 51°15.864 2°54.639 35.7 13.3 36 11.9
2011-07-07 06:46:24 51°15.879 2°54.657 37.6 13.3 38 11.8
2011-07-07 06:46:29 51°15.893 2°54.676 39.4 13.3 40 11.8
2011-07-07 06:46:35 51°15.909 2°54.699 41.8 13.3 42 11.8
2011-07-07 06:46:39 51°15.92 2°54.716 44 13.3 44 11.9
2011-07-07 06:46:44 51°15.933 2°54.736 45.1 13.4 43 11.9
2011-07-07 06:46:49 51°15.946 2°54.757 46.4 13.3 47 11.9
2011-07-07 06:46:55 51°15.962 2°54.783 47.3 13.4 46 11.9
2011-07-07 06:46:59 51°15.972 2°54.8 47.9 13.4 47 11.9
2011-07-07 06:47:04 51°15.984 2°54.822 48.8 13.4 48 11.9
2011-07-07 06:47:09 51°15.997 2°54.844 49.3 13.4 48 11.9
2011-07-07 06:47:15 51°16.011 2°54.871 49.6 13.4 50 11.9
2011-07-07 06:47:19 51°16.021 2°54.889 51.1 13.5 49 12
2011-07-07 06:47:25 51°16.035 2°54.917 51.3 13.4 51 11.9
2011-07-07 06:47:30 51°16.047 2°54.939 52.1 13.4 51 12.1
2011-07-07 06:47:34 51°16.056 2°54.958 52.7 13.5 51 12.1
2011-07-07 06:47:39 51°16.068 2°54.981 52.8 13.4 51 12.2
2011-07-07 06:47:44 51°16.08 2°55.005 53.2 13.4 52 12.2
2011-07-07 06:47:50 51°16.094 2°55.033 53.1 13.5 52 12.2
2011-07-07 06:47:55 51°16.105 2°55.056 53.4 13.5 52 12.3
2011-07-07 06:47:59 51°16.114 2°55.075 53.4 13.4 52 12.2
2011-07-07 06:48:04 51°16.126 2°55.098 53.1 13.4 51 12.2
2011-07-07 06:48:10 51°16.14 2°55.126 52.3 13.5 50 12.2
2011-07-07 06:48:15 51°16.152 2°55.148 51.5 13.4 50 12.2
2011-07-07 06:48:19 51°16.162 2°55.166 50.7 13.5 48 12.2
2011-07-07 06:48:24 51°16.175 2°55.189 50 13.5 48 12.1
2011-07-07 06:48:29 51°16.188 2°55.211 49.5 13.5 48 12.2
2011-07-07 06:48:34 51°16.2 2°55.233 49.4 13.5 48 11.9
2011-07-07 06:48:39 51°16.213 2°55.255 48.9 13.5 47 12.2
2011-07-07 06:48:43 51°16.223 2°55.272 47.9 13.5 47 12.1
2011-07-07 06:48:49 51°16.238 2°55.299 48.1 13.5 46 12.1
2011-07-07 06:48:54 51°16.251 2°55.32 47.5 13.5 47 12.1
2011-07-07 06:48:59 51°16.264 2°55.342 47.5 13.5 47 12.1
2011-07-07 06:49:04 51°16.277 2°55.363 47.2 13.5 46 12.1
2011-07-07 06:49:09 51°16.29 2°55.386 48 13.5 48 12
2011-07-07 06:49:15 51°16.305 2°55.412 48.7 13.5 47 11.9
2011-07-07 06:49:19 51°16.314 2°55.43 49.2 13.5 50 11.7
2011-07-07 06:49:24 51°16.326 2°55.453 50.3 13.5 50 11.5
2011-07-07 06:49:30 51°16.34 2°55.481 51.8 13.4 53 11.5
2011-07-07 06:49:34 51°16.35 2°55.5 53 13.5 52 11.7
2011-07-07 06:49:39 51°16.359 2°55.524 53.7 13.5 53 11.8
2011-07-07 06:49:43 51°16.369 2°55.543 53.7 13.5 53 11.8
2011-07-07 06:49:50 51°16.385 2°55.576 54.1 13.5 53 11.8
2011-07-07 06:49:54 51°16.394 2°55.595 53.8 13.4 53 11.6
2011-07-07 06:49:59 51°16.405 2°55.618 54 13.5 53 11.7
2011-07-07 06:50:04 51°16.416 2°55.642 54 13.5 53 11.7
2011-07-07 06:50:10 51°16.429 2°55.671 54.1 13.4 54 11.6
2011-07-07 06:50:15 51°16.44 2°55.695 54.5 13.4 53 11.6
2011-07-07 06:50:19 51°16.449 2°55.713 54.3 13.4 53 11.6
2011-07-07 06:50:24 51°16.46 2°55.737 54 13.4 52 11.5
2011-07-07 06:50:30 51°16.474 2°55.765 53.5 13.4 51 11.6
2011-07-07 06:50:35 51°16.486 2°55.787 52.1 13.4 50 11.5
2011-07-07 06:50:39 51°16.496 2°55.805 51 13.4 49 11.5
2011-07-07 06:50:44 51°16.508 2°55.827 49.4 13.3 49 11.5
2011-07-07 06:50:50 51°16.523 2°55.854 49.4 13.4 48 11.4
2011-07-07 06:50:55 51°16.536 2°55.875 48.3 13.4 46 11.4
2011-07-07 06:50:59 51°16.546 2°55.893 47.7 13.3 48 11.4
2011-07-07 06:51:04 51°16.558 2°55.914 48 13.4 47 11.5
2011-07-07 06:51:09 51°16.571 2°55.936 48.4 13.4 49 11.4
2011-07-07 06:51:14 51°16.583 2°55.959 49.6 13.4 50 11.3
2011-07-07 06:51:19 51°16.595 2°55.982 50.3 13.4 51 11.3
2011-07-07 06:51:24 51°16.606 2°56.005 51.3 13.4 52 11.3
2011-07-07 06:51:30 51°16.62 2°56.033 52.4 13.4 52 11.3
2011-07-07 06:51:35 51°16.631 2°56.057 52.7 13.6 52 11.3
2011-07-07 06:51:39 51°16.641 2°56.075 52.9 13.6 52 11.3
2011-07-07 06:51:44 51°16.652 2°56.099 53.3 13.4 53 11.3
2011-07-07 06:51:49 51°16.663 2°56.123 53.8 13.4 53 11.2
2011-07-07 06:51:55 51°16.676 2°56.151 53.8 13.4 54 11.1
2011-07-07 06:51:59 51°16.685 2°56.171 54 13.4 54 11.2
2011-07-07 06:52:04 51°16.696 2°56.194 54.3 13.5 53 11.3
2011-07-07 06:52:10 51°16.71 2°56.223 54.1 13.5 53 11.2
2011-07-07 06:52:14 51°16.719 2°56.241 53.4 13.4 52 11.1
2011-07-07 06:52:19 51°16.73 2°56.265 53.1 13.5 52 11.4
2011-07-07 06:52:23 51°16.74 2°56.284 53 13.5 51 11.3
2011-07-07 06:52:30 51°16.756 2°56.316 52.3 13.5 51 11.1
2011-07-07 06:52:34 51°16.766 2°56.334 51.7 13.5 49 11.1
2011-07-07 06:52:39 51°16.778 2°56.357 50.7 13.4 50 11
2011-07-07 06:52:44 51°16.79 2°56.379 50.1 13.4 48 11.1
2011-07-07 06:52:49 51°16.803 2°56.401 48.9 13.5 47 11.1
2011-07-07 06:52:55 51°16.818 2°56.427 48 13.5 47 11.1
2011-07-07 06:52:59 51°16.829 2°56.444 47.3 13.4 46 11.1
2011-07-07 06:53:04 51°16.841 2°56.466 47 13.4 47 11.1
2011-07-07 06:53:09 51°16.854 2°56.487 47 13.4 46 11.1
2011-07-07 06:53:14 51°16.867 2°56.509 46.8 13.5 48 11.1
2011-07-07 06:53:19 51°16.88 2°56.531 47.5 13.5 47 11
2011-07-07 06:53:24 51°16.892 2°56.554 48.2 13.5 50 11.1
2011-07-07 06:53:30 51°16.907 2°56.581 49.3 13.5 49 11.1
2011-07-07 06:53:34 51°16.916 2°56.599 49.9 13.5 51 11.1
2011-07-07 06:53:39 51°16.928 2°56.623 51 13.5 52 11.2
2011-07-07 06:53:44 51°16.939 2°56.646 52 13.5 52 11.1
2011-07-07 06:53:49 51°16.951 2°56.669 52.2 13.4 52 10.7
2011-07-07 06:53:54 51°16.962 2°56.693 52.3 13.5 53 10.6
2011-07-07 06:53:59 51°16.974 2°56.716 52.8 13.5 51 11
2011-07-07 06:54:04 51°16.985 2°56.74 52.9 13.5 54 11
2011-07-07 06:54:10 51°16.998 2°56.769 53.5 13.5 52 11
2011-07-07 06:54:14 51°17.007 2°56.788 53.7 13.5 55 11
2011-07-07 06:54:19 51°17.018 2°56.812 54.4 13.4 53 11
2011-07-07 06:54:24 51°17.03 2°56.836 54 13.4 53 11
2011-07-07 06:54:29 51°17.041 2°56.859 53.8 13.4 52 10.9
2011-07-07 06:54:35 51°17.055 2°56.887 53.1 13.5 51 10.8
2011-07-07 06:54:39 51°17.065 2°56.905 51 13.5 49 10.8
2011-07-07 06:54:44 51°17.077 2°56.928 50.5 13.4 50 10.8
2011-07-07 06:54:49 51°17.089 2°56.95 49.9 13.4 48 10.8
2011-07-07 06:54:55 51°17.104 2°56.976 48.7 13.5 48 10.8
2011-07-07 06:54:59 51°17.115 2°56.994 48.3 13.5 48 10.8
2011-07-07 06:55:03 51°17.125 2°57.011 48 13.5 47 10.7
2011-07-07 06:55:09 51°17.14 2°57.037 47.6 13.5 47 10.7
2011-07-07 06:55:14 51°17.153 2°57.059 47.2 13.5 46 10.7
2011-07-07 06:55:19 51°17.166 2°57.081 47.2 13.4 48 10.6
2011-07-07 06:55:24 51°17.178 2°57.103 48 13.5 48 10.6
2011-07-07 06:55:29 51°17.191 2°57.125 48.2 13.5 49 10.6
2011-07-07 06:55:34 51°17.203 2°57.148 49.3 13.5 50 10.5
2011-07-07 06:55:39 51°17.214 2°57.172 51 13.5 52 10.6
2011-07-07 06:55:44 51°17.226 2°57.195 52.3 13.5 52 10.6
2011-07-07 06:55:50 51°17.239 2°57.224 52.8 13.4 53 10.5
2011-07-07 06:55:55 51°17.25 2°57.247 54.1 13.5 53 10.6
2011-07-07 06:55:59 51°17.259 2°57.267 54.2 13.5 53 10.6
2011-07-07 06:56:04 51°17.27 2°57.291 55 13.5 53 10.7
2011-07-07 06:56:10 51°17.284 2°57.32 54.6 13.5 54 10.6
2011-07-07 06:56:14 51°17.292 2°57.339 55.1 13.6 54 10.7
2011-07-07 06:56:19 51°17.304 2°57.363 54.8 13.5 53 10.7
2011-07-07 06:56:24 51°17.315 2°57.387 54.5 13.4 54 10.5
2011-07-07 06:56:30 51°17.328 2°57.416 55 13.5 53 10.5
2011-07-07 06:56:34 51°17.337 2°57.435 54.7 13.5 53 10.3
2011-07-07 06:56:39 51°17.348 2°57.459 54.5 13.4 53 10.8
2011-07-07 06:56:44 51°17.36 2°57.482 54.1 13.4 53 10.5
2011-07-07 06:56:50 51°17.373 2°57.511 54.1 13.5 53 10.3
2011-07-07 06:56:55 51°17.385 2°57.534 53.8 13.5 52 10.6
2011-07-07 06:56:59 51°17.394 2°57.553 53 13.5 52 10.6
2011-07-07 06:57:04 51°17.406 2°57.576 52.3 13.5 49 10.5
2011-07-07 06:57:09 51°17.419 2°57.598 50.3 13.4 49 10.6
2011-07-07 06:57:15 51°17.433 2°57.625 49.7 13.5 49 10.7
2011-07-07 06:57:19 51°17.444 2°57.642 48.8 13.5 47 10.7
2011-07-07 06:57:24 51°17.456 2°57.664 48.2 13.4 49 10.6
2011-07-07 06:57:29 51°17.469 2°57.687 49.2 13.5 47 10.4
2011-07-07 06:57:35 51°17.484 2°57.713 48.8 13.4 49 10.3
2011-07-07 06:57:39 51°17.493 2°57.731 49.6 13.4 49 10.1
2011-07-07 06:57:43 51°17.503 2°57.749 50 13.3 49 9.9
2011-07-07 06:57:49 51°17.517 2°57.776 50.2 13.3 50 9.9
2011-07-07 06:57:54 51°17.529 2°57.798 51.3 13.3 51 10
2011-07-07 06:57:59 51°17.54 2°57.822 52.4 13.3 52 9.9
2011-07-07 06:58:04 51°17.551 2°57.845 53.3 13.3 53 9.9
2011-07-07 06:58:09 51°17.562 2°57.869 54.1 13.3 54 9.7
2011-07-07 06:58:15 51°17.576 2°57.897 54.7 13.4 52 9.2
2011-07-07 06:58:19 51°17.585 2°57.916 54 13.2 53 9.9
2011-07-07 06:58:23 51°17.594 2°57.935 54.5 13.3 53 9.6
2011-07-07 06:58:30 51°17.61 2°57.967 54 13.4 51 9.9
2011-07-07 06:58:34 51°17.619 2°57.985 52.1 13.4 49 9.6
2011-07-07 06:58:39 51°17.631 2°58.008 51.1 13.3 50 9.8
2011-07-07 06:58:44 51°17.644 2°58.03 50.8 13.3 49 9.6
2011-07-07 06:58:49 51°17.655 2°58.053 50.4 13.4 50 9.6
2011-07-07 06:58:55 51°17.67 2°58.079 50.4 13.4 49 10
2011-07-07 06:58:59 51°17.68 2°58.097 50.2 13.3 49 10
2011-07-07 06:59:04 51°17.693 2°58.119 49.3 13.4 46 9.9
2011-07-07 06:59:10 51°17.708 2°58.145 47.9 13.4 46 9.8
2011-07-07 06:59:15 51°17.721 2°58.165 46.5 13.4 45 10.1
2011-07-07 06:59:19 51°17.732 2°58.182 46.4 13.4 46 9.8
2011-07-07 06:59:24 51°17.745 2°58.203 46.1 13.3 45 9.7
2011-07-07 06:59:30 51°17.76 2°58.229 45.8 13.4 47 9.6
2011-07-07 06:59:35 51°17.774 2°58.25 46.5 13.4 45 9.9
2011-07-07 06:59:39 51°17.783 2°58.267 46.5 13.3 48 10
2011-07-07 06:59:44 51°17.796 2°58.289 47.4 13.4 46 10
2011-07-07 06:59:49 51°17.809 2°58.31 47.7 13.4 48 9.9
2011-07-07 06:59:54 51°17.821 2°58.333 48.7 13.3 49 9.8
2011-07-07 06:59:59 51°17.833 2°58.355 50.1 13.4 50 9.9
2011-07-07 07:00:04 51°17.844 2°58.378 51 13.3 52 10
2011-07-07 07:00:10 51°17.858 2°58.406 52.8 13.3 52 9.9
2011-07-07 07:00:15 51°17.869 2°58.43 53.8 13.3 54 10
2011-07-07 07:00:19 51°17.878 2°58.449 54.6 13.3 54 9.9
2011-07-07 07:00:24 51°17.889 2°58.473 55.2 13.3 54 9.9
2011-07-07 07:00:29 51°17.899 2°58.497 55.6 13.2 54 9.8
2011-07-07 07:00:35 51°17.912 2°58.526 56.1 13.3 55 9.7
2011-07-07 07:00:39 51°17.921 2°58.545 56 13.4 54 9.8
2011-07-07 07:00:44 51°17.932 2°58.569 55 13.3 54 9.7
2011-07-07 07:00:50 51°17.945 2°58.597 55.2 13.3 52 9.7
2011-07-07 07:00:54 51°17.955 2°58.615 53.5 13.3 50 9.8
2011-07-07 07:00:59 51°17.967 2°58.637 51.5 13.4 49 9.9
2011-07-07 07:01:04 51°17.979 2°58.659 49.7 13.3 48 9.8
2011-07-07 07:01:09 51°17.991 2°58.681 49.6 13.4 48 9.8
2011-07-07 07:01:14 51°18.004 2°58.703 48.5 13.4 47 9.8
2011-07-07 07:01:19 51°18.017 2°58.725 47.9 13.4 47 9.9
2011-07-07 07:01:24 51°18.03 2°58.745 46.9 13.4 46 9.9
2011-07-07 07:01:30 51°18.045 2°58.772 47.3 13.4 47 10
2011-07-07 07:01:34 51°18.056 2°58.788 47.3 13.4 46 9.9
2011-07-07 07:01:39 51°18.069 2°58.81 47 13.5 46 9.9
2011-07-07 07:01:44 51°18.082 2°58.831 46.8 13.4 46 9.9
2011-07-07 07:01:49 51°18.094 2°58.853 46.7 13.4 47 9.9
2011-07-07 07:01:55 51°18.11 2°58.879 47.5 13.4 47 9.9
2011-07-07 07:01:59 51°18.12 2°58.896 47.5 13.4 46 10
2011-07-07 07:02:04 51°18.132 2°58.918 47.8 13.3 48 9.9
2011-07-07 07:02:09 51°18.145 2°58.94 48.7 13.4 47 10
2011-07-07 07:02:14 51°18.158 2°58.961 48.1 13.4 47 9.9
2011-07-07 07:02:19 51°18.17 2°58.983 48.1 13.4 47 9.9
2011-07-07 07:02:24 51°18.183 2°59.004 47.7 13.3 47 9.9
2011-07-07 07:02:30 51°18.198 2°59.03 47.8 13.4 47 9.9
2011-07-07 07:02:34 51°18.208 2°59.047 48 13.4 46 9.9
2011-07-07 07:02:39 51°18.221 2°59.069 47.5 13.4 47 9.9
2011-07-07 07:02:44 51°18.234 2°59.091 48.5 13.4 48 10
2011-07-07 07:02:49 51°18.246 2°59.113 49.7 13.4 50 9.9
2011-07-07 07:02:55 51°18.259 2°59.141 51.9 13.4 52 9.9
2011-07-07 07:02:59 51°18.268 2°59.16 52.8 13.4 51 10
2011-07-07 07:03:04 51°18.28 2°59.183 53.6 13.3 53 9.9
2011-07-07 07:03:10 51°18.293 2°59.211 54.8 13.3 53 9.9
2011-07-07 07:03:15 51°18.304 2°59.235 54.8 13.3 54 9.9
2011-07-07 07:03:19 51°18.312 2°59.254 55.7 13.3 55 10
2011-07-07 07:03:24 51°18.323 2°59.278 55.7 13.2 54 9.9
2011-07-07 07:03:29 51°18.333 2°59.302 56.1 13.2 55 9.9
2011-07-07 07:03:35 51°18.347 2°59.33 56.3 13.3 53 9.9
2011-07-07 07:03:39 51°18.355 2°59.349 55.5 13.3 54 9.8
2011-07-07 07:03:44 51°18.366 2°59.373 56.1 13.3 54 9.9
2011-07-07 07:03:50 51°18.379 2°59.401 55.3 13.3 53 9.9
2011-07-07 07:03:55 51°18.39 2°59.425 55.5 13.2 54 9.9
2011-07-07 07:03:59 51°18.399 2°59.443 55.2 13.3 52 9.9
2011-07-07 07:04:04 51°18.41 2°59.467 54.8 13.2 54 9.8
2011-07-07 07:04:09 51°18.421 2°59.49 54.5 13.3 51 9.8
2011-07-07 07:04:15 51°18.435 2°59.517 53.3 13.3 51 9.8
2011-07-07 07:04:19 51°18.445 2°59.535 51.6 13.2 49 9.9
2011-07-07 07:04:24 51°18.457 2°59.557 50.5 13.2 49 9.8
2011-07-07 07:04:29 51°18.469 2°59.579 50.2 13.3 48 9.8
2011-07-07 07:04:34 51°18.482 2°59.6 48.8 13.3 46 9.9
2011-07-07 07:04:39 51°18.494 2°59.622 48.7 13.2 48 9.7
2011-07-07 07:04:44 51°18.507 2°59.643 48.3 13.3 46 9.9
2011-07-07 07:04:50 51°18.523 2°59.668 47.3 13.3 46 9.8
2011-07-07 07:04:55 51°18.535 2°59.69 47.6 13.2 47 9.7
2011-07-07 07:04:59 51°18.545 2°59.707 48.1 13.3 47 9.8
2011-07-07 07:05:04 51°18.558 2°59.729 48.5 13.4 48 9.8
2011-07-07 07:05:09 51°18.57 2°59.751 49.7 13.4 50 9.8
2011-07-07 07:05:14 51°18.581 2°59.774 51.8 13.3 51 9.8
2011-07-07 07:05:19 51°18.592 2°59.798 53.2 13.3 53 9.7
2011-07-07 07:05:24 51°18.604 2°59.821 54 13.3 52 9.7
2011-07-07 07:05:30 51°18.617 2°59.849 53.9 13.4 53 9.8
2011-07-07 07:05:34 51°18.626 2°59.868 54.3 13.4 53 9.8
2011-07-07 07:05:39 51°18.637 2°59.892 54.5 13.4 54 9.8
2011-07-07 07:05:44 51°18.648 2°59.916 55.5 13.4 54 9.8
2011-07-07 07:05:50 51°18.661 2°59.945 55.2 13.4 54 9.8
2011-07-07 07:05:55 51°18.672 2°59.969 55.8 13.3 55 9.7
2011-07-07 07:05:59 51°18.681 2°59.988 56.1 13.3 55 9.7
2011-07-07 07:06:04 51°18.691 3°0.012 56.7 13.4 55 9.7
2011-07-07 07:06:09 51°18.703 3°0.036 56.1 13.3 52 9.7
2011-07-07 07:06:14 51°18.714 3°0.059 54.9 13.1 51 9.7
2011-07-07 07:06:19 51°18.727 3°0.079 50.4 13 43 9.7
2011-07-07 07:06:24 51°18.741 3°0.097 44.1 12.9 37 9.7
2011-07-07 07:06:29 51°18.756 3°0.111 36.9 12.8 29 9.7
2011-07-07 07:06:34 51°18.773 3°0.123 31 12.6 22 9.8
2011-07-07 07:06:39 51°18.789 3°0.131 22.3 12.5 16 9.8
2011-07-07 07:06:43 51°18.803 3°0.135 14.9 12.5 9 9.7
2011-07-07 07:06:49 51°18.824 3°0.137 8.1 12.4 2 9.8
2011-07-07 07:06:54 51°18.841 3°0.136 2.3 12.3 356 9.7
2011-07-07 07:06:59 51°18.858 3°0.131 353.9 12.2 349 9.8
2011-07-07 07:07:04 51°18.874 3°0.124 346.7 12.2 342 9.7
2011-07-07 07:07:10 51°18.892 3°0.111 339.5 12 335 9.7
2011-07-07 07:07:14 51°18.903 3°0.1 333.5 11.9 328 9.7
2011-07-07 07:07:19 51°18.917 3°0.084 324.9 11.9 321 9.8
2011-07-07 07:07:24 51°18.928 3°0.065 317.4 11.7 314 9.8
2011-07-07 07:07:29 51°18.938 3°0.045 311.5 11.6 307 9.7
2011-07-07 07:07:35 51°18.948 3°0.019 304.1 11.5 300 9.6
2011-07-07 07:07:39 51°18.952 3°0 295.4 11.4 294 9.6
2011-07-07 07:07:44 51°18.957 2°59.976 288 11.3 285 9.7
2011-07-07 07:07:49 51°18.959 2°59.952 282.2 11.1 278 9.6
2011-07-07 07:07:55 51°18.96 2°59.922 275 11.1 271 9.7
2011-07-07 07:07:59 51°18.959 2°59.903 266.2 10.9 264 9.5
2011-07-07 07:08:04 51°18.955 2°59.88 260.1 10.8 256 9.8
2011-07-07 07:08:10 51°18.949 2°59.853 251.5 10.7 249 9.6
2011-07-07 07:08:14 51°18.943 2°59.837 245.6 10.6 241 9.6
2011-07-07 07:08:19 51°18.935 2°59.817 238.2 10.6 234 9.8
2011-07-07 07:08:24 51°18.925 2°59.8 231.2 10.6 227 9.7
2011-07-07 07:08:29 51°18.914 2°59.783 224.2 10.9 223 9.8
2011-07-07 07:08:35 51°18.901 2°59.763 220.7 11.1 225 9.6
2011-07-07 07:08:39 51°18.892 2°59.749 221 11.2 225 9.7
2011-07-07 07:08:43 51°18.883 2°59.735 222.2 11.4 227 9.7
2011-07-07 07:08:49 51°18.87 2°59.712 224 11.5 228 9.7
2011-07-07 07:08:54 51°18.86 2°59.692 225.6 11.6 232 9.6
2011-07-07 07:08:59 51°18.85 2°59.672 228.2 11.6 233 9.7
2011-07-07 07:09:04 51°18.841 2°59.65 230 11.7 235 9.7
2011-07-07 07:09:09 51°18.832 2°59.629 231.6 11.7 236 9.9
2011-07-07 07:09:14 51°18.824 2°59.607 233.7 11.8 239 9.8
2011-07-07 07:09:19 51°18.815 2°59.584 235.3 11.8 239 9.7
2011-07-07 07:09:24 51°18.807 2°59.561 236.3 11.8 240 9.8
2011-07-07 07:09:29 51°18.799 2°59.538 237.2 11.8 242 9.8
2011-07-07 07:09:34 51°18.792 2°59.515 238.1 11.8 241 9.7
2011-07-07 07:09:39 51°18.784 2°59.492 238.4 11.8 242 9.8
2011-07-07 07:09:44 51°18.776 2°59.469 238.8 11.8 242 9.8
2011-07-07 07:09:49 51°18.768 2°59.446 238.9 11.8 242 9.7
2011-07-07 07:09:55 51°18.759 2°59.418 238.7 11.8 241 9.9
2011-07-07 07:09:59 51°18.753 2°59.4 238.1 11.8 241 9.9
2011-07-07 07:10:04 51°18.745 2°59.378 237.8 11.8 240 10
2011-07-07 07:10:10 51°18.735 2°59.351 237.3 11.8 240 9.8
2011-07-07 07:10:14 51°18.728 2°59.333 236.4 11.7 238 9.9
2011-07-07 07:10:19 51°18.719 2°59.311 235 11.7 236 10
2011-07-07 07:10:23 51°18.712 2°59.294 233.6 11.7 235 9.9
2011-07-07 07:10:30 51°18.699 2°59.264 232.8 11.7 235 9.9
2011-07-07 07:10:34 51°18.691 2°59.248 231.7 11.7 234 10.1
2011-07-07 07:10:39 51°18.682 2°59.227 231.2 11.6 234 10
2011-07-07 07:10:44 51°18.672 2°59.206 230.7 11.7 233 10.1
2011-07-07 07:10:49 51°18.663 2°59.185 230.3 11.7 234 10.1
2011-07-07 07:10:55 51°18.651 2°59.161 230.3 11.6 233 10
2011-07-07 07:10:59 51°18.643 2°59.144 230.4 11.6 234 10.1
2011-07-07 07:11:04 51°18.634 2°59.123 230.7 11.7 233 10.2
2011-07-07 07:11:10 51°18.623 2°59.098 231 11.7 235 10.2
2011-07-07 07:11:14 51°18.615 2°59.081 231.4 11.6 233 10
2011-07-07 07:11:19 51°18.606 2°59.06 231.2 11.7 235 10.1
2011-07-07 07:11:24 51°18.596 2°59.039 231.5 11.7 235 10.2
2011-07-07 07:11:29 51°18.587 2°59.018 231.9 11.7 235 10.2
2011-07-07 07:11:34 51°18.578 2°58.996 232.3 11.7 236 10.2
2011-07-07 07:11:39 51°18.569 2°58.975 232.4 11.7 235 10.1
2011-07-07 07:11:44 51°18.56 2°58.954 232.3 11.7 235 10.2
2011-07-07 07:11:50 51°18.548 2°58.928 231.7 11.7 235 10.4
2011-07-07 07:11:55 51°18.539 2°58.907 231.8 11.7 235 10.3
2011-07-07 07:11:59 51°18.532 2°58.89 231.6 11.7 235 10.2
2011-07-07 07:12:04 51°18.523 2°58.868 232 11.8 237 10.3
2011-07-07 07:12:10 51°18.512 2°58.842 233.5 11.8 238 10.3
2011-07-07 07:12:14 51°18.506 2°58.824 234.8 11.8 239 10.2
2011-07-07 07:12:19 51°18.498 2°58.801 236.2 11.8 240 10.2
2011-07-07 07:12:24 51°18.489 2°58.779 237.1 11.8 240 10.4
2011-07-07 07:12:30 51°18.48 2°58.751 237.4 11.9 242 10.4
2011-07-07 07:12:34 51°18.473 2°58.733 238.4 11.8 241 10.3
2011-07-07 07:12:39 51°18.466 2°58.71 238.8 11.9 243 10.4
2011-07-07 07:12:44 51°18.458 2°58.686 239.3 11.8 242 10.4
2011-07-07 07:12:50 51°18.449 2°58.659 239.4 11.8 243 10.4
2011-07-07 07:12:55 51°18.442 2°58.635 239.4 11.7 242 10.3
2011-07-07 07:12:59 51°18.436 2°58.617 239.2 11.8 242 10.5
2011-07-07 07:13:04 51°18.428 2°58.595 238.5 11.7 241 10.4
2011-07-07 07:13:09 51°18.42 2°58.572 238.2 11.7 241 10.4
2011-07-07 07:13:14 51°18.412 2°58.549 237.7 11.7 240 10.4
2011-07-07 07:13:19 51°18.403 2°58.527 236.8 11.7 239 10.6
2011-07-07 07:13:24 51°18.395 2°58.505 236.1 11.7 238 10.6
2011-07-07 07:13:29 51°18.386 2°58.483 235 11.8 236 10.6
2011-07-07 07:13:34 51°18.376 2°58.462 233.7 11.7 235 10.6
2011-07-07 07:13:39 51°18.367 2°58.441 232.6 11.8 234 10.6
2011-07-07 07:13:43 51°18.359 2°58.424 231.7 11.8 233 10.8
2011-07-07 07:13:49 51°18.347 2°58.399 231.2 11.8 233 10.4
2011-07-07 07:13:54 51°18.337 2°58.379 230.3 11.7 232 10.2
2011-07-07 07:13:59 51°18.327 2°58.358 229.6 11.7 232 10.6
2011-07-07 07:14:04 51°18.317 2°58.338 229.1 11.8 231 10.7
2011-07-07 07:14:09 51°18.307 2°58.317 229.1 11.8 231 10.7
2011-07-07 07:14:15 51°18.294 2°58.293 228.9 11.8 231 10.7
2011-07-07 07:14:19 51°18.286 2°58.277 228.9 11.8 231 10.6
2011-07-07 07:14:24 51°18.276 2°58.257 228.6 11.7 232 10.6
2011-07-07 07:14:30 51°18.264 2°58.232 229.1 11.7 232 10.6
2011-07-07 07:14:35 51°18.254 2°58.212 229.2 11.8 232 10.7
2011-07-07 07:14:39 51°18.246 2°58.195 229.7 11.8 233 10.7
2011-07-07 07:14:44 51°18.237 2°58.174 230.6 11.7 233 10.8
2011-07-07 07:14:49 51°18.227 2°58.153 230.8 11.7 234 10.7
2011-07-07 07:14:55 51°18.216 2°58.128 231.3 11.7 235 10.7
2011-07-07 07:14:59 51°18.209 2°58.11 232.7 11.7 237 10.7
2011-07-07 07:15:04 51°18.2 2°58.089 233.9 11.7 237 10.8
2011-07-07 07:15:10 51°18.19 2°58.062 234.9 11.7 238 10.7
2011-07-07 07:15:15 51°18.181 2°58.041 235.2 11.8 237 10.8
2011-07-07 07:15:19 51°18.174 2°58.023 235.6 11.8 238 10.8
2011-07-07 07:15:24 51°18.166 2°58.001 236 11.9 239 10.8
2011-07-07 07:15:29 51°18.157 2°57.978 236.6 11.9 239 10.8
2011-07-07 07:15:34 51°18.149 2°57.955 236.9 11.9 239 10.8
2011-07-07 07:15:39 51°18.14 2°57.933 236.7 11.8 239 10.5
2011-07-07 07:15:43 51°18.134 2°57.915 236.4 11.8 238 10.9
2011-07-07 07:15:49 51°18.123 2°57.888 235.9 11.8 237 11
2011-07-07 07:15:54 51°18.114 2°57.867 235.2 11.8 237 11
2011-07-07 07:15:59 51°18.105 2°57.845 234.5 11.7 236 10.8
2011-07-07 07:16:04 51°18.096 2°57.824 233.6 11.7 235 10.9
2011-07-07 07:16:10 51°18.084 2°57.799 232.4 11.7 234 10.9
2011-07-07 07:16:15 51°18.075 2°57.779 231.2 11.7 232 10.9
2011-07-07 07:16:19 51°18.066 2°57.762 230.2 11.7 232 11
2011-07-07 07:16:24 51°18.057 2°57.742 229.6 11.7 232 10.8
2011-07-07 07:16:29 51°18.046 2°57.722 229.2 11.7 231 11
2011-07-07 07:16:35 51°18.034 2°57.698 228.9 11.7 232 11
2011-07-07 07:16:39 51°18.026 2°57.682 228.9 11.6 231 11
2011-07-07 07:16:44 51°18.016 2°57.662 228.8 11.7 231 11
2011-07-07 07:16:50 51°18.004 2°57.637 228.8 11.7 232 11.1
2011-07-07 07:16:54 51°17.996 2°57.621 229.1 11.7 232 11.1
2011-07-07 07:16:59 51°17.986 2°57.6 229.5 11.7 233 11
2011-07-07 07:17:03 51°17.979 2°57.584 230.8 11.7 235 11.1
2011-07-07 07:17:10 51°17.966 2°57.554 232 11.7 236 11
2011-07-07 07:17:14 51°17.959 2°57.536 233.4 11.7 237 11.1
2011-07-07 07:17:19 51°17.95 2°57.515 234.2 11.7 238 11.1
2011-07-07 07:17:24 51°17.942 2°57.492 234.9 11.8 239 11.1
2011-07-07 07:17:29 51°17.933 2°57.47 235.6 11.8 239 11.1
2011-07-07 07:17:35 51°17.923 2°57.443 236.1 11.8 238 11.1
2011-07-07 07:17:39 51°17.916 2°57.426 235.9 11.8 239 11.1
2011-07-07 07:17:44 51°17.908 2°57.403 235.9 11.8 238 11.1
2011-07-07 07:17:50 51°17.897 2°57.377 235.6 11.9 238 11.1
2011-07-07 07:17:54 51°17.89 2°57.359 235.5 11.8 238 11
2011-07-07 07:17:59 51°17.882 2°57.337 235.4 11.9 238 11.2
2011-07-07 07:18:04 51°17.873 2°57.314 235.5 11.9 238 11.3
2011-07-07 07:18:09 51°17.864 2°57.292 235.4 11.8 237 11.2
2011-07-07 07:18:14 51°17.855 2°57.271 234.1 11.8 235 11.1
2011-07-07 07:18:19 51°17.845 2°57.249 232.5 11.9 234 11.1
2011-07-07 07:18:24 51°17.835 2°57.228 231.6 11.9 233 11.2
2011-07-07 07:18:30 51°17.823 2°57.204 230.5 11.9 232 11.1
2011-07-07 07:18:35 51°17.813 2°57.183 229.7 11.8 232 11.1
2011-07-07 07:18:39 51°17.805 2°57.167 229.1 11.8 231 10.9
2011-07-07 07:18:44 51°17.795 2°57.146 228.5 11.8 231 11
2011-07-07 07:18:50 51°17.782 2°57.122 228.5 11.9 231 11.2
2011-07-07 07:18:54 51°17.774 2°57.105 228.9 11.8 232 11.2
2011-07-07 07:18:59 51°17.764 2°57.084 229.6 11.9 233 11.2
2011-07-07 07:19:04 51°17.754 2°57.063 230.7 11.9 234 10.3
2011-07-07 07:19:10 51°17.743 2°57.037 231.8 12 236 11.2
2011-07-07 07:19:14 51°17.736 2°57.019 233.4 11.9 237 11.1
2011-07-07 07:19:19 51°17.727 2°56.997 234.1 11.9 237 11.1
2011-07-07 07:19:24 51°17.718 2°56.975 234.5 11.9 236 11.1
2011-07-07 07:19:30 51°17.706 2°56.949 233.8 12 235 11.1
2011-07-07 07:19:35 51°17.697 2°56.927 232.8 12 234 11.1
2011-07-07 07:19:39 51°17.689 2°56.91 232.3 11.9 234 11.1
2011-07-07 07:19:44 51°17.679 2°56.889 231 11.9 232 11.1
2011-07-07 07:19:49 51°17.668 2°56.869 229.6 12 231 11.1
2011-07-07 07:19:55 51°17.655 2°56.845 228.3 12 229 11
2011-07-07 07:19:59 51°17.647 2°56.829 227.3 12 230 11.1
2011-07-07 07:20:04 51°17.636 2°56.808 227 11.9 228 11.1
2011-07-07 07:20:09 51°17.625 2°56.789 226.3 12 228 11.1
2011-07-07 07:20:14 51°17.614 2°56.769 226 12 228 11.2
2011-07-07 07:20:19 51°17.602 2°56.75 225.8 12 228 11.2
2011-07-07 07:20:23 51°17.594 2°56.734 225.7 12 229 11.2
2011-07-07 07:20:29 51°17.58 2°56.71 225.9 11.9 228 11.1
2011-07-07 07:20:34 51°17.57 2°56.69 226.1 11.9 229 11.2
2011-07-07 07:20:39 51°17.559 2°56.67 226.7 12 230 11.1
2011-07-07 07:20:44 51°17.549 2°56.649 227.7 12 231 11.2
2011-07-07 07:20:49 51°17.538 2°56.628 228.7 12 232 11.3
2011-07-07 07:20:55 51°17.526 2°56.603 229.6 12 233 11.3
2011-07-07 07:20:59 51°17.518 2°56.586 230.2 11.9 233 11.1
2011-07-07 07:21:04 51°17.508 2°56.565 231 11.9 234 11.1
2011-07-07 07:21:10 51°17.497 2°56.539 231.6 12 235 11.3
2011-07-07 07:21:15 51°17.487 2°56.517 232.7 12 235 11.3
2011-07-07 07:21:19 51°17.48 2°56.499 233.3 12 236 11.3
2011-07-07 07:21:24 51°17.471 2°56.477 233.7 11.9 236 11.1
2011-07-07 07:21:29 51°17.462 2°56.456 233.9 11.9 236 11.2
2011-07-07 07:21:35 51°17.451 2°56.429 234.1 11.9 236 11.2
2011-07-07 07:21:39 51°17.443 2°56.412 234.4 11.9 236 11.2
2011-07-07 07:21:44 51°17.433 2°56.39 233.9 11.9 235 11.2
2011-07-07 07:21:50 51°17.422 2°56.364 233.4 11.9 234 11.2
2011-07-07 07:21:55 51°17.412 2°56.343 232.6 11.9 233 11.2
2011-07-07 07:21:59 51°17.404 2°56.327 231.5 11.9 232 11.2
2011-07-07 07:22:04 51°17.393 2°56.306 230.2 11.9 231 11.2
2011-07-07 07:22:09 51°17.383 2°56.286 228.9 11.9 230 11.1
2011-07-07 07:22:15 51°17.37 2°56.262 228.2 11.9 229 11.3
2011-07-07 07:22:19 51°17.361 2°56.246 227.4 12 228 11.4
2011-07-07 07:22:24 51°17.35 2°56.226 227.2 12 229 11.2
2011-07-07 07:22:29 51°17.339 2°56.206 226.8 12 228 11.2
2011-07-07 07:22:34 51°17.328 2°56.186 226.7 12.1 229 11.3
2011-07-07 07:22:39 51°17.317 2°56.166 227.4 12 229 11.2
2011-07-07 07:22:44 51°17.307 2°56.145 227.9 12.1 231 11.2
2011-07-07 07:22:50 51°17.294 2°56.12 229 12.1 232 11.4
2011-07-07 07:22:55 51°17.284 2°56.098 230.1 12.1 234 11.3
2011-07-07 07:22:59 51°17.276 2°56.081 231.4 12.1 233 11.3
2011-07-07 07:23:04 51°17.267 2°56.059 232.1 12.1 235 11.3
2011-07-07 07:23:09 51°17.257 2°56.037 233.1 12.1 235 11.3
2011-07-07 07:23:15 51°17.246 2°56.01 233.3 12.2 235 11.4
2011-07-07 07:23:19 51°17.238 2°55.992 233.7 12.2 236 11.1
2011-07-07 07:23:24 51°17.229 2°55.97 233.8 12.1 236 11.2
2011-07-07 07:23:30 51°17.217 2°55.943 234 12.2 236 11.3
2011-07-07 07:23:34 51°17.21 2°55.925 234.5 12.1 237 11.2
2011-07-07 07:23:39 51°17.201 2°55.903 234.4 12.1 236 11.4
2011-07-07 07:23:43 51°17.193 2°55.885 233.8 12.2 236 11.3
2011-07-07 07:23:50 51°17.179 2°55.855 233.1 12.2 234 11.4
2011-07-07 07:23:54 51°17.171 2°55.837 231.8 12.1 233 11.3
2011-07-07 07:23:59 51°17.161 2°55.816 230.5 12.2 231 11.4
2011-07-07 07:24:04 51°17.15 2°55.795 229.3 12.2 231 11.4
2011-07-07 07:24:09 51°17.139 2°55.775 228.5 12.1 229 11.3
2011-07-07 07:24:15 51°17.126 2°55.751 227.7 12.2 229 11.3
2011-07-07 07:24:19 51°17.117 2°55.734 226.9 12.1 228 11.3
2011-07-07 07:24:24 51°17.106 2°55.714 226.4 12.2 228 11.3
2011-07-07 07:24:30 51°17.092 2°55.69 226 12.2 228 11.3
2011-07-07 07:24:35 51°17.081 2°55.67 226.1 12.2 228 11.2
2011-07-07 07:24:39 51°17.072 2°55.654 226.1 12.3 228 11.4
2011-07-07 07:24:44 51°17.06 2°55.633 226.5 12.3 229 11.3
2011-07-07 07:24:49 51°17.049 2°55.613 227.2 12.3 230 11.3
2011-07-07 07:24:54 51°17.039 2°55.591 228.2 12.3 232 11.3
2011-07-07 07:24:59 51°17.028 2°55.57 229.6 12.3 232 11.3
2011-07-07 07:25:04 51°17.018 2°55.548 230.5 12.3 234 11.3
2011-07-07 07:25:10 51°17.006 2°55.521 231.6 12.3 235 11.2
2011-07-07 07:25:15 51°16.996 2°55.499 232.4 12.3 235 11.3
2011-07-07 07:25:19 51°16.989 2°55.481 233.3 12.3 236 11.2
2011-07-07 07:25:24 51°16.979 2°55.459 233.5 12.3 236 11
2011-07-07 07:25:30 51°16.968 2°55.432 233.7 12.3 236 11.3
2011-07-07 07:25:34 51°16.96 2°55.414 233.8 12.3 236 11.1
2011-07-07 07:25:39 51°16.95 2°55.391 233.8 12.3 235 11
2011-07-07 07:25:45 51°16.939 2°55.364 233.8 12.2 236 11
2011-07-07 07:25:50 51°16.93 2°55.342 233.8 12.2 235 10.9
2011-07-07 07:25:54 51°16.922 2°55.324 233.2 12.2 235 10.8
2011-07-07 07:25:59 51°16.912 2°55.303 232.5 12.1 233 10.7
2011-07-07 07:26:04 51°16.902 2°55.282 230.9 12.1 232 10.9
2011-07-07 07:26:10 51°16.889 2°55.257 229.4 12.2 231 10.8
2011-07-07 07:26:15 51°16.878 2°55.236 229.1 12.1 231 10.6
2011-07-07 07:26:19 51°16.87 2°55.22 227.9 12.1 229 10.8
2011-07-07 07:26:24 51°16.859 2°55.199 227.3 12.1 230 10.7
2011-07-07 07:26:29 51°16.848 2°55.179 227.1 12.1 228 10.8
2011-07-07 07:26:35 51°16.834 2°55.155 226.4 12.1 228 10.6
2011-07-07 07:26:39 51°16.825 2°55.139 226.1 12.1 229 10.9
2011-07-07 07:26:44 51°16.814 2°55.119 226.4 12.1 229 10.8
2011-07-07 07:26:49 51°16.803 2°55.098 226.7 12.1 229 10.7
2011-07-07 07:26:55 51°16.791 2°55.074 227.1 12.2 230 11
2011-07-07 07:26:59 51°16.782 2°55.057 227.8 12.1 231 11.1
2011-07-07 07:27:03 51°16.774 2°55.04 228.7 12.2 232 11.1
2011-07-07 07:27:09 51°16.761 2°55.014 229.8 12.2 233 11.4
2011-07-07 07:27:14 51°16.751 2°54.992 230.8 12.2 234 11.7
2011-07-07 07:27:19 51°16.741 2°54.97 231.9 12.3 235 11.7
2011-07-07 07:27:24 51°16.732 2°54.948 232.7 12.3 236 12
2011-07-07 07:27:29 51°16.722 2°54.925 233.2 12.3 235 12.1
2011-07-07 07:27:35 51°16.711 2°54.898 233.5 12.3 236 12.2
2011-07-07 07:27:39 51°16.703 2°54.88 233.7 12.3 236 12.2
2011-07-07 07:27:44 51°16.693 2°54.858 233.8 12.3 236 12.4
2011-07-07 07:27:50 51°16.682 2°54.831 233.6 12.3 236 12.4
2011-07-07 07:27:55 51°16.672 2°54.809 233.2 12.3 235 12.5
2011-07-07 07:27:59 51°16.664 2°54.791 232.6 12.3 234 12.5
2011-07-07 07:28:04 51°16.654 2°54.77 231.3 12.2 232 12.4
2011-07-07 07:28:09 51°16.643 2°54.749 230.2 12.2 231 12.4
2011-07-07 07:28:15 51°16.63 2°54.724 229 12.2 230 12.3
2011-07-07 07:28:19 51°16.621 2°54.708 228 12.2 230 11.8
2011-07-07 07:28:24 51°16.611 2°54.687 227.8 12.2 229 12.2
2011-07-07 07:28:30 51°16.597 2°54.663 227.1 12.2 228 12.2
2011-07-07 07:28:35 51°16.586 2°54.642 226.6 12.2 229 12.3
2011-07-07 07:28:39 51°16.577 2°54.626 226.8 12.3 229 12.4
2011-07-07 07:28:44 51°16.566 2°54.605 227.1 12.3 230 12.3
2011-07-07 07:28:49 51°16.555 2°54.585 227.3 12.2 229 12.2
2011-07-07 07:28:55 51°16.542 2°54.56 227.4 12.2 229 12.2
2011-07-07 07:28:59 51°16.533 2°54.544 227.3 12.2 229 12.2
2011-07-07 07:29:04 51°16.522 2°54.523 227.3 12.2 229 12.2
2011-07-07 07:29:09 51°16.511 2°54.503 227.4 12.2 229 12.2
2011-07-07 07:29:14 51°16.5 2°54.482 227.3 12.2 229 12.2
2011-07-07 07:29:19 51°16.489 2°54.461 227.4 12.2 230 12.2
2011-07-07 07:29:24 51°16.478 2°54.441 227.7 12.2 230 12.2
2011-07-07 07:29:30 51°16.465 2°54.415 228 12.3 232 12.2
2011-07-07 07:29:35 51°16.455 2°54.394 229.4 12.2 233 12.1
2011-07-07 07:29:39 51°16.447 2°54.376 230.9 12.3 234 12.3
2011-07-07 07:29:44 51°16.437 2°54.354 232.2 12.2 236 12.2
2011-07-07 07:29:49 51°16.428 2°54.332 233.1 12.2 235 12.1
2011-07-07 07:29:55 51°16.416 2°54.305 233.4 12.3 237 12.2
2011-07-07 07:29:59 51°16.409 2°54.287 234.2 12.3 236 12.2
2011-07-07 07:30:04 51°16.399 2°54.265 233.7 12.3 235 12.2
2011-07-07 07:30:10 51°16.387 2°54.238 233 12.3 234 12.2
2011-07-07 07:30:14 51°16.379 2°54.221 232 12.3 233 12.2
2011-07-07 07:30:19 51°16.368 2°54.199 230.9 12.3 232 12.2
2011-07-07 07:30:23 51°16.36 2°54.183 229.8 12.3 231 12.1
2011-07-07 07:30:30 51°16.345 2°54.153 228.9 12.2 231 12.1
2011-07-07 07:30:34 51°16.337 2°54.136 228.6 12.2 231 12.1
2011-07-07 07:30:39 51°16.326 2°54.116 228.3 12.2 230 12.1
2011-07-07 07:30:44 51°16.315 2°54.095 227.8 12.2 230 12.2
2011-07-07 07:30:49 51°16.304 2°54.075 227.4 12.2 229 12.2
2011-07-07 07:30:55 51°16.29 2°54.05 227.2 12.2 229 12.1
2011-07-07 07:30:59 51°16.281 2°54.034 227.3 12.2 229 12.1
2011-07-07 07:31:04 51°16.271 2°54.013 227.6 12.2 230 12.1
2011-07-07 07:31:10 51°16.258 2°53.988 228 12.3 231 12.1
2011-07-07 07:31:15 51°16.247 2°53.967 228.6 12.3 232 12.1
2011-07-07 07:31:19 51°16.239 2°53.95 229.7 12.2 233 12.1
2011-07-07 07:31:24 51°16.229 2°53.928 230.7 12.3 234 12.1
2011-07-07 07:31:29 51°16.219 2°53.906 231.5 12.3 234 12.1
2011-07-07 07:31:34 51°16.209 2°53.884 232.1 12.3 235 12.1
2011-07-07 07:31:39 51°16.199 2°53.861 232.6 12.3 235 12.1
2011-07-07 07:31:44 51°16.19 2°53.839 233.5 12.3 237 12.1
2011-07-07 07:31:50 51°16.178 2°53.811 234 12.3 236 12.2
2011-07-07 07:31:55 51°16.169 2°53.789 234.1 12.3 237 12.1
2011-07-07 07:31:59 51°16.161 2°53.771 234.3 12.3 235 12.3
2011-07-07 07:32:04 51°16.152 2°53.749 233.2 12.3 234 12.1
2011-07-07 07:32:10 51°16.139 2°53.723 232.2 12.3 234 12.2
2011-07-07 07:32:14 51°16.131 2°53.705 231.5 12.3 233 12.2
2011-07-07 07:32:19 51°16.121 2°53.684 230.4 12.3 232 12.2
2011-07-07 07:32:24 51°16.11 2°53.663 229.6 12.3 231 12.2
2011-07-07 07:32:30 51°16.097 2°53.638 228.8 12.3 231 12.3
2011-07-07 07:32:34 51°16.088 2°53.621 228.4 12.3 230 12.2
2011-07-07 07:32:39 51°16.077 2°53.6 228 12.3 230 12.3
2011-07-07 07:32:44 51°16.066 2°53.579 227.7 12.3 230 12.2
2011-07-07 07:32:50 51°16.053 2°53.554 228 12.3 230 12.3
2011-07-07 07:32:55 51°16.042 2°53.534 227.8 12.3 230 12.3
2011-07-07 07:32:59 51°16.033 2°53.517 227.6 12.3 229 12.3
2011-07-07 07:33:04 51°16.023 2°53.496 227.5 12.3 231 12.2
2011-07-07 07:33:09 51°16.012 2°53.475 228.1 12.3 231 12.3
2011-07-07 07:33:15 51°15.999 2°53.449 228.6 12.4 232 12.4
2011-07-07 07:33:19 51°15.991 2°53.432 229.5 12.4 232 12.4
2011-07-07 07:33:24 51°15.981 2°53.41 230.4 12.3 233 12.4
2011-07-07 07:33:29 51°15.971 2°53.387 231.5 12.4 235 12.4
2011-07-07 07:33:34 51°15.961 2°53.365 232.3 12.4 235 12.6
2011-07-07 07:33:39 51°15.951 2°53.342 233.1 12.4 236 12.8
2011-07-07 07:33:43 51°15.943 2°53.324 233.5 12.4 235 12.7
2011-07-07 07:33:49 51°15.932 2°53.297 233.8 12.4 236 13.4
2011-07-07 07:33:54 51°15.922 2°53.275 233.7 12.4 235 12.6
2011-07-07 07:33:59 51°15.912 2°53.252 233.3 12.4 235 12.6
2011-07-07 07:34:04 51°15.902 2°53.23 233.1 12.3 235 12.6
2011-07-07 07:34:09 51°15.892 2°53.208 232.8 12.3 234 12.5
2011-07-07 07:34:15 51°15.88 2°53.182 232.4 12.3 234 12.6
2011-07-07 07:34:19 51°15.872 2°53.164 232.3 12.3 235 12.6
2011-07-07 07:34:24 51°15.862 2°53.142 232.9 12.3 235 12.6
2011-07-07 07:34:30 51°15.85 2°53.115 232.9 12.3 234 12.6
2011-07-07 07:34:35 51°15.84 2°53.093 232.3 12.3 233 12.5
2011-07-07 07:34:39 51°15.832 2°53.076 231.3 12.3 232 12.6
2011-07-07 07:34:44 51°15.821 2°53.055 230.4 12.3 231 12.6
2011-07-07 07:34:49 51°15.81 2°53.034 229.3 12.3 230 12.6
2011-07-07 07:34:55 51°15.797 2°53.008 228.6 12.4 230 12.6
2011-07-07 07:34:59 51°15.788 2°52.992 227.9 12.4 229 12.7
2011-07-07 07:35:04 51°15.777 2°52.971 227.4 12.4 230 12.7
2011-07-07 07:35:10 51°15.764 2°52.946 227.3 12.3 229 12.7
2011-07-07 07:35:15 51°15.752 2°52.925 227.3 12.4 229 12.8
2011-07-07 07:35:19 51°15.743 2°52.908 227.2 12.4 230 12.7
2011-07-07 07:35:24 51°15.732 2°52.887 227.6 12.4 230 12.7
2011-07-07 07:35:29 51°15.721 2°52.866 228 12.4 230 12.7
2011-07-07 07:35:35 51°15.708 2°52.841 228 12.4 230 12.8
2011-07-07 07:35:39 51°15.699 2°52.824 228 12.4 230 12.7
2011-07-07 07:35:43 51°15.69 2°52.807 227.8 12.4 230 12.8
2011-07-07 07:35:49 51°15.678 2°52.781 228.4 12.4 231 12.7
2011-07-07 07:35:54 51°15.667 2°52.76 229.4 12.5 233 12.7
2011-07-07 07:35:59 51°15.657 2°52.738 230.8 12.4 234 12.7
2011-07-07 07:36:04 51°15.647 2°52.715 231.9 12.5 235 12.8
2011-07-07 07:36:10 51°15.635 2°52.688 233 12.5 236 12.7
2011-07-07 07:36:15 51°15.626 2°52.665 234.3 12.5 237 12.6
2011-07-07 07:36:19 51°15.619 2°52.646 235.8 12.5 239 12.8
2011-07-07 07:36:24 51°15.61 2°52.622 236.9 12.5 239 12.7
2011-07-07 07:36:29 51°15.601 2°52.598 238 12.5 241 12.7
2011-07-07 07:36:35 51°15.591 2°52.569 238.2 12.4 240 12.7
2011-07-07 07:36:39 51°15.584 2°52.55 238.7 12.4 241 12.7
2011-07-07 07:36:44 51°15.576 2°52.527 238.4 12.4 240 12.8
2011-07-07 07:36:50 51°15.565 2°52.498 238 12.4 239 12.8
2011-07-07 07:36:54 51°15.558 2°52.48 237.2 12.4 238 12.5
2011-07-07 07:36:59 51°15.549 2°52.457 236.1 12.4 237 12.8
2011-07-07 07:37:05 51°15.537 2°52.429 235.4 12.4 236 12.8
2011-07-07 07:37:10 51°15.528 2°52.406 234.8 12.4 237 12.8
2011-07-07 07:37:14 51°15.52 2°52.388 234.5 12.4 236 12.6
2011-07-07 07:37:19 51°15.51 2°52.366 233.9 12.4 236 12.3
2011-07-07 07:37:24 51°15.5 2°52.343 233.7 12.4 236 12.8
2011-07-07 07:37:29 51°15.491 2°52.32 233.7 12.4 236 12.7
2011-07-07 07:37:35 51°15.479 2°52.293 233.8 12.4 236 12.9
2011-07-07 07:37:39 51°15.471 2°52.275 234 12.4 236 12.8
2011-07-07 07:37:43 51°15.464 2°52.257 234.4 12.4 236 12.7
2011-07-07 07:37:49 51°15.453 2°52.229 234.6 12.4 237 12.6
2011-07-07 07:37:54 51°15.443 2°52.206 234.8 12.4 237 12.9
2011-07-07 07:37:59 51°15.434 2°52.183 235.2 12.4 238 12.6
2011-07-07 07:38:04 51°15.425 2°52.16 235.8 12.4 239 12.8
2011-07-07 07:38:09 51°15.416 2°52.136 237 12.4 241 12.8
2011-07-07 07:38:14 51°15.408 2°52.112 237.9 12.4 240 12.8
2011-07-07 07:38:19 51°15.399 2°52.088 238.7 12.5 242 12.8
2011-07-07 07:38:24 51°15.391 2°52.064 239.6 12.5 241 12.9
2011-07-07 07:38:30 51°15.381 2°52.034 239.8 12.5 242 12.7
2011-07-07 07:38:35 51°15.374 2°52.01 240.3 12.5 242 12.8
2011-07-07 07:38:39 51°15.367 2°51.99 240.7 12.5 243 13
2011-07-07 07:38:44 51°15.359 2°51.966 240.8 12.5 242 12.7
2011-07-07 07:38:50 51°15.349 2°51.937 240.2 12.5 242 13
2011-07-07 07:38:54 51°15.343 2°51.917 240.1 12.5 241 12.8
2011-07-07 07:38:59 51°15.334 2°51.893 239.2 12.5 240 12.9
2011-07-07 07:39:05 51°15.324 2°51.864 238.6 12.5 240 12.8
2011-07-07 07:39:10 51°15.315 2°51.841 238 12.5 240 12.8
2011-07-07 07:39:14 51°15.308 2°51.822 237.7 12.4 239 12.8
2011-07-07 07:39:19 51°15.299 2°51.798 237.1 12.5 238 12.8
2011-07-07 07:39:24 51°15.289 2°51.775 236.1 12.4 238 12.8
2011-07-07 07:39:30 51°15.278 2°51.747 235.3 12.4 237 12.8
2011-07-07 07:39:35 51°15.269 2°51.725 234.6 12.4 237 12.8
2011-07-07 07:39:39 51°15.261 2°51.706 234.2 12.4 235 12.9
2011-07-07 07:39:44 51°15.251 2°51.684 233.8 12.4 236 12.7
2011-07-07 07:39:49 51°15.241 2°51.661 233.7 12.4 235 13
2011-07-07 07:39:55 51°15.229 2°51.634 233.3 12.4 235 12.8
2011-07-07 07:39:59 51°15.222 2°51.616 233.1 12.4 235 12.8
2011-07-07 07:40:04 51°15.212 2°51.593 233.3 12.5 236 12.9
2011-07-07 07:40:09 51°15.202 2°51.57 233.7 12.5 236 12.8
2011-07-07 07:40:15 51°15.191 2°51.542 234.2 12.5 237 12.8
2011-07-07 07:40:19 51°15.183 2°51.524 234.6 12.5 237 12.9
2011-07-07 07:40:23 51°15.176 2°51.505 234.8 12.5 238 12.7
2011-07-07 07:40:29 51°15.164 2°51.477 235.2 12.5 237 12.9
2011-07-07 07:40:35 51°15.153 2°51.449 235.5 12.5 238 12.6
2011-07-07 07:40:39 51°15.146 2°51.431 235.7 12.5 237 12.9
2011-07-07 07:40:44 51°15.136 2°51.408 235.5 12.5 238 12.8
2011-07-07 07:40:49 51°15.127 2°51.384 235.4 12.5 237 12.9
2011-07-07 07:40:55 51°15.116 2°51.356 235.4 12.5 237 12.6
2011-07-07 07:40:59 51°15.108 2°51.338 235.2 12.5 237 12.7
2011-07-07 07:41:04 51°15.099 2°51.315 234.7 12.5 236 12.8
2011-07-07 07:41:10 51°15.087 2°51.288 233.9 12.5 235 12.8
2011-07-07 07:41:14 51°15.079 2°51.269 233.1 12.5 235 12.7
2011-07-07 07:41:19 51°15.068 2°51.247 232.3 12.5 234 12.9
2011-07-07 07:41:23 51°15.06 2°51.229 231.8 12.5 233 12.7
2011-07-07 07:41:30 51°15.045 2°51.199 231.1 12.5 233 12.6
2011-07-07 07:41:34 51°15.037 2°51.181 230.4 12.5 232 12.5
2011-07-07 07:41:39 51°15.026 2°51.16 229.9 12.5 232 12.7
2011-07-07 07:41:44 51°15.015 2°51.138 229.4 12.5 231 12.7
2011-07-07 07:41:49 51°15.005 2°51.117 229.3 12.4 231 12.6
2011-07-07 07:41:55 51°14.991 2°51.091 229 12.5 230 12.6
2011-07-07 07:41:59 51°14.983 2°51.074 228.9 12.5 231 12.7
2011-07-07 07:42:04 51°14.972 2°51.052 229.1 12.5 231 12.7